Aviation Digital Data Service (ADDS)

Output produced by METARs form (0227 UTC 22 April 2019)
found at http://www.aviationweather.gov/metar/data/
 
METAR text: VTUL 220200Z 35003KT 270V060 6000 NSC 30/22 Q1009 NOSIG
Conditions at: VTUL (LOEI , TH) observed 0200 UTC 22 April 2019
Temperature: 30.0°C (86°F)
Dewpoint: 22.0°C (72°F) [RH = 62%]
Pressure (altimeter): 29.79 inches Hg (1009.0 mb)
Winds: from the N (350 degrees) at 3 MPH (3 knots; 1.5 m/s)
Visibility: 4 miles ( 6 km)
Ceiling: at least 12,000 feet AGL
Clouds: sky clear below 12,000 feet AGL
Weather: no significant weather observed at this time

METAR text: VTUL 220100Z 01005KT 320V040 6000 FEW035 27/22 Q1009 NOSIG
Conditions at: VTUL (LOEI , TH) observed 0100 UTC 22 April 2019
Temperature: 27.0°C (81°F)
Dewpoint: 22.0°C (72°F) [RH = 74%]
Pressure (altimeter): 29.79 inches Hg (1009.0 mb)
Winds: from the N (10 degrees) at 6 MPH (5 knots; 2.6 m/s)
Visibility: 4 miles ( 6 km)
Ceiling: at least 12,000 feet AGL
Clouds: few clouds at 3500 feet AGL
Weather: no significant weather observed at this time

METAR text: VTUL 220000Z 03005KT 5000 BR NSC 25/22 Q1008 NOSIG
Conditions at: VTUL (LOEI , TH) observed 0000 UTC 22 April 2019
Temperature: 25.0°C (77°F)
Dewpoint: 22.0°C (72°F) [RH = 83%]
Pressure (altimeter): 29.76 inches Hg (1008.0 mb)
Winds: from the NNE (30 degrees) at 6 MPH (5 knots; 2.6 m/s)
Visibility: 3 miles ( 5 km)
Ceiling: at least 12,000 feet AGL
Clouds: sky clear below 12,000 feet AGL
Weather: BR  (mist)

METAR text: VTUL 212300Z 26002KT 5000 BR NSC 25/21 Q1007 NOSIG
Conditions at: VTUL (LOEI , TH) observed 2300 UTC 21 April 2019
Temperature: 25.0°C (77°F)
Dewpoint: 21.0°C (70°F) [RH = 79%]
Pressure (altimeter): 29.73 inches Hg (1007.0 mb)
Winds: from the W (260 degrees) at 2 MPH (2 knots; 1.0 m/s)
Visibility: 3 miles ( 5 km)
Ceiling: at least 12,000 feet AGL
Clouds: sky clear below 12,000 feet AGL
Weather: BR  (mist)

METAR text: VTUL 211200Z 14003KT 080V200 9999 FEW035 34/20 Q1002 NOSIG
Conditions at: VTUL (LOEI , TH) observed 1200 UTC 21 April 2019
Temperature: 34.0°C (93°F)
Dewpoint: 20.0°C (68°F) [RH = 44%]
Pressure (altimeter): 29.59 inches Hg (1002.0 mb)
Winds: from the SE (140 degrees) at 3 MPH (3 knots; 1.5 m/s)
Visibility: 6 or more miles (10+ km)
Ceiling: at least 12,000 feet AGL
Clouds: few clouds at 3500 feet AGL
Weather: no significant weather observed at this time

METAR text: VTUL 211100Z 20010KT 9999 FEW035 SCT080 37/19 Q1002 NOSIG
Conditions at: VTUL (LOEI , TH) observed 1100 UTC 21 April 2019
Temperature: 37.0°C (99°F)
Dewpoint: 19.0°C (66°F) [RH = 35%]
Pressure (altimeter): 29.59 inches Hg (1002.0 mb)
Winds: from the SSW (200 degrees) at 12 MPH (10 knots; 5.1 m/s)
Visibility: 6 or more miles (10+ km)
Ceiling: at least 12,000 feet AGL
Clouds: few clouds at 3500 feet AGL
scattered clouds at 8000 feet AGL
Weather: no significant weather observed at this time

METAR text: VTUL 211000Z 18010KT 140V220 9999 FEW035 SCT080 38/18 Q1002 NOSIG
Conditions at: VTUL (LOEI , TH) observed 1000 UTC 21 April 2019
Temperature: 38.0°C (100°F)
Dewpoint: 18.0°C (64°F) [RH = 31%]
Pressure (altimeter): 29.59 inches Hg (1002.0 mb)
Winds: from the S (180 degrees) at 12 MPH (10 knots; 5.1 m/s)
Visibility: 6 or more miles (10+ km)
Ceiling: at least 12,000 feet AGL
Clouds: few clouds at 3500 feet AGL
scattered clouds at 8000 feet AGL
Weather: no significant weather observed at this time

METAR text: VTUL 210900Z 18006KT 100V210 9999 SCT035 SCT080 41/17 Q1002 NOSIG
Conditions at: VTUL (LOEI , TH) observed 0900 UTC 21 April 2019
Temperature: 41.0°C (106°F)
Dewpoint: 17.0°C (63°F) [RH = 25%]
Pressure (altimeter): 29.59 inches Hg (1002.0 mb)
Winds: from the S (180 degrees) at 7 MPH (6 knots; 3.1 m/s)
Visibility: 6 or more miles (10+ km)
Ceiling: at least 12,000 feet AGL
Clouds: scattered clouds at 3500 feet AGL
scattered clouds at 8000 feet AGL
Weather: no significant weather observed at this time

METAR text: VTUL 210800Z VRB05G15KT 9999 SCT035 41/17 Q1002 NOSIG
Conditions at: VTUL (LOEI , TH) observed 0800 UTC 21 April 2019
Temperature: 41.0°C (106°F)
Dewpoint: 17.0°C (63°F) [RH = 25%]
Pressure (altimeter): 29.59 inches Hg (1002.0 mb)
Winds: variable direction winds at 6 MPH (5 knots; 2.6 m/s)
gusting to 17 MPH (15 knots; 7.7 m/s)
Visibility: 6 or more miles (10+ km)
Ceiling: at least 12,000 feet AGL
Clouds: scattered clouds at 3500 feet AGL
Weather: no significant weather observed at this time

METAR text: VTUL 210700Z VRB04KT 9999 FEW035 41/19 Q1003 NOSIG
Conditions at: VTUL (LOEI , TH) observed 0700 UTC 21 April 2019
Temperature: 41.0°C (106°F)
Dewpoint: 19.0°C (66°F) [RH = 28%]
Pressure (altimeter): 29.62 inches Hg (1003.0 mb)
Winds: variable direction winds at 5 MPH (4 knots; 2.1 m/s)
Visibility: 6 or more miles (10+ km)
Ceiling: at least 12,000 feet AGL
Clouds: few clouds at 3500 feet AGL
Weather: no significant weather observed at this time

METAR text: VTUL 210600Z VRB05KT 9999 FEW035 40/18 Q1005 NOSIG
Conditions at: VTUL (LOEI , TH) observed 0600 UTC 21 April 2019
Temperature: 40.0°C (104°F)
Dewpoint: 18.0°C (64°F) [RH = 28%]
Pressure (altimeter): 29.68 inches Hg (1005.0 mb)
Winds: variable direction winds at 6 MPH (5 knots; 2.6 m/s)
Visibility: 6 or more miles (10+ km)
Ceiling: at least 12,000 feet AGL
Clouds: few clouds at 3500 feet AGL
Weather: no significant weather observed at this time

METAR text: VTUL 210500Z VRB04KT 9000 FEW030 39/17 Q1006 NOSIG
Conditions at: VTUL (LOEI , TH) observed 0500 UTC 21 April 2019
Temperature: 39.0°C (102°F)
Dewpoint: 17.0°C (63°F) [RH = 28%]
Pressure (altimeter): 29.70 inches Hg (1006.0 mb)
Winds: variable direction winds at 5 MPH (4 knots; 2.1 m/s)
Visibility: 6 miles ( 9 km)
Ceiling: at least 12,000 feet AGL
Clouds: few clouds at 3000 feet AGL
Weather: no significant weather observed at this time

METAR text: VTUL 210400Z VRB04KT 9000 NSC 38/19 Q1007 NOSIG
Conditions at: VTUL (LOEI , TH) observed 0400 UTC 21 April 2019
Temperature: 38.0°C (100°F)
Dewpoint: 19.0°C (66°F) [RH = 33%]
Pressure (altimeter): 29.73 inches Hg (1007.0 mb)
Winds: variable direction winds at 5 MPH (4 knots; 2.1 m/s)
Visibility: 6 miles ( 9 km)
Ceiling: at least 12,000 feet AGL
Clouds: sky clear below 12,000 feet AGL
Weather: no significant weather observed at this time

METAR text: VTUL 210300Z VRB03KT CAVOK 36/20 Q1007 NOSIG
Conditions at: VTUL (LOEI , TH) observed 0300 UTC 21 April 2019
Temperature: 36.0°C (97°F)
Dewpoint: 20.0°C (68°F) [RH = 39%]
Pressure (altimeter): 29.73 inches Hg (1007.0 mb)
Winds: variable direction winds at 3 MPH (3 knots; 1.5 m/s)
Visibility: 6 or more miles (10+ km)
Ceiling: ceiling and visibility are OK
Clouds: unknown
Weather: no significant weather observed at this time

METAR text: VTUL 210200Z 04003KT 340V120 CAVOK 34/19 Q1007 NOSIG
Conditions at: VTUL (LOEI , TH) observed 0200 UTC 21 April 2019
Temperature: 34.0°C (93°F)
Dewpoint: 19.0°C (66°F) [RH = 41%]
Pressure (altimeter): 29.73 inches Hg (1007.0 mb)
Winds: from the NE (40 degrees) at 3 MPH (3 knots; 1.5 m/s)
Visibility: 6 or more miles (10+ km)
Ceiling: ceiling and visibility are OK
Clouds: unknown
Weather: no significant weather observed at this time

METAR text: VTUL 210100Z VRB02KT 9000 NSC 29/21 Q1007 NOSIG
Conditions at: VTUL (LOEI , TH) observed 0100 UTC 21 April 2019
Temperature: 29.0°C (84°F)
Dewpoint: 21.0°C (70°F) [RH = 62%]
Pressure (altimeter): 29.73 inches Hg (1007.0 mb)
Winds: variable direction winds at 2 MPH (2 knots; 1.0 m/s)
Visibility: 6 miles ( 9 km)
Ceiling: at least 12,000 feet AGL
Clouds: sky clear below 12,000 feet AGL
Weather: no significant weather observed at this time

METAR text: VTUL 210000Z VRB01KT 9000 NSC 24/21 Q1006 NOSIG
Conditions at: VTUL (LOEI , TH) observed 0000 UTC 21 April 2019
Temperature: 24.0°C (75°F)
Dewpoint: 21.0°C (70°F) [RH = 83%]
Pressure (altimeter): 29.70 inches Hg (1006.0 mb)
Winds: variable direction winds at 1 MPH (1 knots; 0.5 m/s)
Visibility: 6 miles ( 9 km)
Ceiling: at least 12,000 feet AGL
Clouds: sky clear below 12,000 feet AGL
Weather: no significant weather observed at this time

METAR text: VTUL 202300Z 27003KT CAVOK 22/20 Q1004 NOSIG
Conditions at: VTUL (LOEI , TH) observed 2300 UTC 20 April 2019
Temperature: 22.0°C (72°F)
Dewpoint: 20.0°C (68°F) [RH = 88%]
Pressure (altimeter): 29.65 inches Hg (1004.0 mb)
Winds: from the W (270 degrees) at 3 MPH (3 knots; 1.5 m/s)
Visibility: 6 or more miles (10+ km)
Ceiling: ceiling and visibility are OK
Clouds: unknown
Weather: no significant weather observed at this time

Forecast for: VTUL (LOEI , TH)
Text: TAF VTUL 212300Z 2200/2224 21005KT 5000 BR FEW030
Forecast period: 0000 to 0100 UTC 22 April 2019
Forecast type: FROM: standard forecast or significant change
Winds: from the SSW (210 degrees) at 6 MPH (5 knots; 2.6 m/s)
Visibility: 3 miles (5 km)
Ceiling: at least 12,000 feet AGL
Clouds: few clouds at 3000 feet AGL
Weather: BR  (mist)
Text: BECMG 2201/2203 8000 NSW
Forecast period: 0100 UTC 22 April 2019 to 0000 UTC 23 April 2019
Forecast type: BECOMING: Conditions expected to become as follows by 0300 UTC 22 April 2019
Winds: from the SSW (210 degrees) at 6 MPH (5 knots; 2.6 m/s)
Visibility: 5 miles (8 km)
Ceiling: at least 12,000 feet AGL
Clouds: few clouds at 3000 feet AGL
Weather: NSW  (no significant weather)
Text: TEMPO 2209/2212 VRB10KT 5000 TSRA FEW018CB BKN020 BKN080
Forecast period: 0900 to 1200 UTC 22 April 2019
Forecast type: TEMPORARY: The following changes expected for less than half the time period
Winds: variable direction winds at 12 MPH (10 knots; 5.1 m/s)
Visibility: 3 miles (5 km)
Ceiling: 2000 feet AGL
Clouds: few clouds at 1800 feet AGL
broken clouds at 2000 feet AGL
broken clouds at 8000 feet AGL
Weather: TSRA  (rain associated with thunderstorm(s))